sensor_id;sensor_type;location;lat;lon;timestamp;temperature;humidity
66337;SHT30;53139;45.576;5.304;2023-05-20T08:38:24;15.29;82.94
66337;SHT30;53139;45.576;5.304;2023-05-20T08:41:26;15.51;82.71
66337;SHT30;53139;45.576;5.304;2023-05-20T08:44:33;15.55;81.64
66337;SHT30;53139;45.576;5.304;2023-05-20T09:24:12;16.60;78.15
66337;SHT30;53139;45.576;5.304;2023-05-20T09:32:25;16.40;79.01
66337;SHT30;53139;45.576;5.304;2023-05-20T10:19:06;17.51;79.06
66337;SHT30;53139;45.576;5.304;2023-05-20T11:17:32;17.35;74.15
66337;SHT30;53139;45.576;5.304;2023-05-20T11:20:33;18.01;75.49
66337;SHT30;53139;45.576;5.304;2023-05-20T11:23:35;18.16;74.29
66337;SHT30;53139;45.576;5.304;2023-05-20T11:26:36;18.13;74.23
66337;SHT30;53139;45.576;5.304;2023-05-20T11:29:38;17.91;73.22
66337;SHT30;53139;45.576;5.304;2023-05-20T11:32:39;18.25;75.70
66337;SHT30;53139;45.576;5.304;2023-05-20T11:38:45;18.56;74.46
66337;SHT30;53139;45.576;5.304;2023-05-20T11:41:46;18.54;74.74
66337;SHT30;53139;45.576;5.304;2023-05-20T11:44:47;19.08;73.60
66337;SHT30;53139;45.576;5.304;2023-05-20T11:48:04;19.64;73.57
66337;SHT30;53139;45.576;5.304;2023-05-20T11:51:07;19.23;71.86
66337;SHT30;53139;45.576;5.304;2023-05-20T11:54:10;19.40;73.99
66337;SHT30;53139;45.576;5.304;2023-05-20T11:57:17;19.25;70.77
66337;SHT30;53139;45.576;5.304;2023-05-20T12:00:18;19.05;68.31
66337;SHT30;53139;45.576;5.304;2023-05-20T12:03:23;18.87;70.10
66337;SHT30;53139;45.576;5.304;2023-05-20T12:06:24;19.07;70.17
66337;SHT30;53139;45.576;5.304;2023-05-20T12:09:28;18.77;73.02
66337;SHT30;53139;45.576;5.304;2023-05-20T12:12:29;19.15;73.51
66337;SHT30;53139;45.576;5.304;2023-05-20T12:15:31;18.88;69.73
66337;SHT30;53139;45.576;5.304;2023-05-20T12:18:33;18.57;71.84
66337;SHT30;53139;45.576;5.304;2023-05-20T12:21:34;18.32;71.57
66337;SHT30;53139;45.576;5.304;2023-05-20T12:24:35;18.83;71.60
66337;SHT30;53139;45.576;5.304;2023-05-20T12:27:39;19.09;70.45
66337;SHT30;53139;45.576;5.304;2023-05-20T12:30:39;19.42;70.33
66337;SHT30;53139;45.576;5.304;2023-05-20T12:33:40;19.35;70.76
66337;SHT30;53139;45.576;5.304;2023-05-20T12:36:49;19.35;71.25
66337;SHT30;53139;45.576;5.304;2023-05-20T12:39:52;19.33;70.73
66337;SHT30;53139;45.576;5.304;2023-05-20T12:43:03;18.94;71.21
66337;SHT30;53139;45.576;5.304;2023-05-20T12:46:04;18.81;71.66
66337;SHT30;53139;45.576;5.304;2023-05-20T12:49:05;18.92;73.51
66337;SHT30;53139;45.576;5.304;2023-05-20T12:52:09;19.04;70.33
66337;SHT30;53139;45.576;5.304;2023-05-20T12:55:10;18.52;70.79
66337;SHT30;53139;45.576;5.304;2023-05-20T12:58:15;18.88;71.06
66337;SHT30;53139;45.576;5.304;2023-05-20T13:01:16;18.60;71.10
66337;SHT30;53139;45.576;5.304;2023-05-20T13:04:17;18.71;70.74
66337;SHT30;53139;45.576;5.304;2023-05-20T13:07:18;18.84;69.84
66337;SHT30;53139;45.576;5.304;2023-05-20T13:10:19;18.61;71.63
66337;SHT30;53139;45.576;5.304;2023-05-20T13:13:20;19.02;72.17
66337;SHT30;53139;45.576;5.304;2023-05-20T13:16:24;18.68;69.84
66337;SHT30;53139;45.576;5.304;2023-05-20T13:19:31;18.68;72.87
66337;SHT30;53139;45.576;5.304;2023-05-20T13:22:34;18.75;72.76
66337;SHT30;53139;45.576;5.304;2023-05-20T13:25:38;18.68;71.81
66337;SHT30;53139;45.576;5.304;2023-05-20T13:28:39;18.90;73.44
66337;SHT30;53139;45.576;5.304;2023-05-20T13:31:42;19.26;72.47
66337;SHT30;53139;45.576;5.304;2023-05-20T13:35:01;19.33;72.18
66337;SHT30;53139;45.576;5.304;2023-05-20T13:38:01;19.47;72.20
66337;SHT30;53139;45.576;5.304;2023-05-20T13:41:02;19.05;69.48
66337;SHT30;53139;45.576;5.304;2023-05-20T13:44:12;19.38;72.00
66337;SHT30;53139;45.576;5.304;2023-05-20T13:47:20;19.15;69.81
66337;SHT30;53139;45.576;5.304;2023-05-20T13:53:48;19.09;71.48
66337;SHT30;53139;45.576;5.304;2023-05-20T13:56:52;18.66;72.21
66337;SHT30;53139;45.576;5.304;2023-05-20T13:59:56;18.92;69.54
66337;SHT30;53139;45.576;5.304;2023-05-20T14:03:01;18.97;71.82
66337;SHT30;53139;45.576;5.304;2023-05-20T14:06:12;19.32;70.19
66337;SHT30;53139;45.576;5.304;2023-05-20T14:09:15;19.40;71.02
66337;SHT30;53139;45.576;5.304;2023-05-20T14:12:16;19.69;71.78
66337;SHT30;53139;45.576;5.304;2023-05-20T14:15:17;19.77;68.86
66337;SHT30;53139;45.576;5.304;2023-05-20T14:18:23;19.90;69.45
66337;SHT30;53139;45.576;5.304;2023-05-20T14:21:24;20.01;66.07
66337;SHT30;53139;45.576;5.304;2023-05-20T14:24:26;19.97;67.33
66337;SHT30;53139;45.576;5.304;2023-05-20T14:27:33;19.98;68.90
66337;SHT30;53139;45.576;5.304;2023-05-20T14:30:34;20.28;67.46
66337;SHT30;53139;45.576;5.304;2023-05-20T14:33:37;19.80;67.54
66337;SHT30;53139;45.576;5.304;2023-05-20T14:36:47;19.70;68.57
66337;SHT30;53139;45.576;5.304;2023-05-20T14:39:51;19.90;70.17
66337;SHT30;53139;45.576;5.304;2023-05-20T14:42:55;20.52;69.11
66337;SHT30;53139;45.576;5.304;2023-05-20T14:46:05;20.46;69.79
66337;SHT30;53139;45.576;5.304;2023-05-20T14:49:08;20.40;68.89
66337;SHT30;53139;45.576;5.304;2023-05-20T14:52:53;20.52;67.41
66337;SHT30;53139;45.576;5.304;2023-05-20T14:56:12;20.57;67.44
66337;SHT30;53139;45.576;5.304;2023-05-20T14:59:32;20.26;67.01
66337;SHT30;53139;45.576;5.304;2023-05-20T15:02:34;19.97;66.72
66337;SHT30;53139;45.576;5.304;2023-05-20T15:05:38;20.04;68.05
66337;SHT30;53139;45.576;5.304;2023-05-20T15:08:48;20.18;68.51
66337;SHT30;53139;45.576;5.304;2023-05-20T15:12:21;20.01;68.47
66337;SHT30;53139;45.576;5.304;2023-05-20T15:15:52;19.43;68.89
66337;SHT30;53139;45.576;5.304;2023-05-20T15:19:09;19.29;68.86
66337;SHT30;53139;45.576;5.304;2023-05-20T15:27:06;19.19;70.75
66337;SHT30;53139;45.576;5.304;2023-05-20T15:30:54;19.22;70.14
66337;SHT30;53139;45.576;5.304;2023-05-20T15:34:28;19.14;70.58
66337;SHT30;53139;45.576;5.304;2023-05-20T15:37:38;19.01;69.66
66337;SHT30;53139;45.576;5.304;2023-05-20T15:40:39;18.95;70.55
66337;SHT30;53139;45.576;5.304;2023-05-20T15:43:39;18.91;72.70
66337;SHT30;53139;45.576;5.304;2023-05-20T15:46:40;18.98;70.77
66337;SHT30;53139;45.576;5.304;2023-05-20T15:49:40;18.77;70.43
66337;SHT30;53139;45.576;5.304;2023-05-20T15:52:41;18.71;72.61
66337;SHT30;53139;45.576;5.304;2023-05-20T15:55:41;18.59;76.06
66337;SHT30;53139;45.576;5.304;2023-05-20T15:58:45;18.63;71.74
66337;SHT30;53139;45.576;5.304;2023-05-20T16:01:45;18.60;73.37
66337;SHT30;53139;45.576;5.304;2023-05-20T16:04:46;18.64;72.09
66337;SHT30;53139;45.576;5.304;2023-05-20T16:07:46;18.60;72.94
66337;SHT30;53139;45.576;5.304;2023-05-20T16:10:47;18.50;73.70
66337;SHT30;53139;45.576;5.304;2023-05-20T16:13:47;18.45;73.19
66337;SHT30;53139;45.576;5.304;2023-05-20T16:16:48;18.33;74.34
66337;SHT30;53139;45.576;5.304;2023-05-20T16:19:48;18.28;75.08
66337;SHT30;53139;45.576;5.304;2023-05-20T16:22:49;18.25;75.25
66337;SHT30;53139;45.576;5.304;2023-05-20T16:25:49;18.16;75.80
66337;SHT30;53139;45.576;5.304;2023-05-20T16:28:50;18.24;74.87
66337;SHT30;53139;45.576;5.304;2023-05-20T16:31:51;18.22;75.97
66337;SHT30;53139;45.576;5.304;2023-05-20T16:34:51;18.11;75.06
66337;SHT30;53139;45.576;5.304;2023-05-20T16:37:54;18.08;75.24
66337;SHT30;53139;45.576;5.304;2023-05-20T16:40:55;18.01;76.67
66337;SHT30;53139;45.576;5.304;2023-05-20T16:43:56;17.88;75.89
66337;SHT30;53139;45.576;5.304;2023-05-20T16:47:02;17.75;77.36
66337;SHT30;53139;45.576;5.304;2023-05-20T16:50:03;17.73;78.66
66337;SHT30;53139;45.576;5.304;2023-05-20T16:53:03;17.77;77.59
66337;SHT30;53139;45.576;5.304;2023-05-20T16:56:06;17.75;78.28
66337;SHT30;53139;45.576;5.304;2023-05-20T16:59:07;17.81;78.11
66337;SHT30;53139;45.576;5.304;2023-05-20T17:02:10;17.80;77.78
66337;SHT30;53139;45.576;5.304;2023-05-20T17:05:28;17.77;78.09
66337;SHT30;53139;45.576;5.304;2023-05-20T17:09:34;17.73;77.53
66337;SHT30;53139;45.576;5.304;2023-05-20T17:13:13;17.73;79.01
66337;SHT30;53139;45.576;5.304;2023-05-20T17:17:06;17.73;79.53
66337;SHT30;53139;45.576;5.304;2023-05-20T17:21:38;17.78;78.64
66337;SHT30;53139;45.576;5.304;2023-05-20T17:25:52;17.75;78.77
66337;SHT30;53139;45.576;5.304;2023-05-20T17:36:02;17.71;78.50
66337;SHT30;53139;45.576;5.304;2023-05-20T17:39:02;17.69;77.83
66337;SHT30;53139;45.576;5.304;2023-05-20T17:42:05;17.81;78.05
66337;SHT30;53139;45.576;5.304;2023-05-20T17:45:06;17.64;80.18
66337;SHT30;53139;45.576;5.304;2023-05-20T17:48:07;17.71;77.40
66337;SHT30;53139;45.576;5.304;2023-05-20T17:51:10;17.66;78.50
66337;SHT30;53139;45.576;5.304;2023-05-20T17:54:11;17.77;76.45
66337;SHT30;53139;45.576;5.304;2023-05-20T17:57:14;17.83;75.82
66337;SHT30;53139;45.576;5.304;2023-05-20T18:00:15;17.60;80.24
66337;SHT30;53139;45.576;5.304;2023-05-20T18:03:20;17.51;79.17
66337;SHT30;53139;45.576;5.304;2023-05-20T18:06:24;17.57;80.43
66337;SHT30;53139;45.576;5.304;2023-05-20T18:09:25;17.54;79.69
66337;SHT30;53139;45.576;5.304;2023-05-20T18:12:26;17.37;82.82
66337;SHT30;53139;45.576;5.304;2023-05-20T18:15:29;17.40;83.24
66337;SHT30;53139;45.576;5.304;2023-05-20T18:18:32;17.42;83.39
66337;SHT30;53139;45.576;5.304;2023-05-20T18:21:33;17.25;83.99
66337;SHT30;53139;45.576;5.304;2023-05-20T18:24:33;17.26;81.84
66337;SHT30;53139;45.576;5.304;2023-05-20T18:27:34;17.33;83.99
66337;SHT30;53139;45.576;5.304;2023-05-20T18:30:35;17.04;85.44
66337;SHT30;53139;45.576;5.304;2023-05-20T18:33:36;17.12;85.28
66337;SHT30;53139;45.576;5.304;2023-05-20T18:36:37;16.92;86.57
66337;SHT30;53139;45.576;5.304;2023-05-20T18:39:38;17.14;82.58
66337;SHT30;53139;45.576;5.304;2023-05-20T18:42:38;17.04;85.35
66337;SHT30;53139;45.576;5.304;2023-05-20T18:45:39;17.09;84.31
66337;SHT30;53139;45.576;5.304;2023-05-20T18:48:40;16.95;84.86
66337;SHT30;53139;45.576;5.304;2023-05-20T18:51:40;16.95;82.28
66337;SHT30;53139;45.576;5.304;2023-05-20T18:54:41;17.07;82.34
66337;SHT30;53139;45.576;5.304;2023-05-20T18:57:44;17.05;81.80
66337;SHT30;53139;45.576;5.304;2023-05-20T19:00:45;16.96;81.80
66337;SHT30;53139;45.576;5.304;2023-05-20T19:03:45;16.94;83.16
66337;SHT30;53139;45.576;5.304;2023-05-20T19:06:46;16.78;83.20
66337;SHT30;53139;45.576;5.304;2023-05-20T19:09:47;16.81;83.32
66337;SHT30;53139;45.576;5.304;2023-05-20T19:12:55;16.59;84.04
66337;SHT30;53139;45.576;5.304;2023-05-20T19:15:57;16.74;83.64
66337;SHT30;53139;45.576;5.304;2023-05-20T19:18:58;16.65;84.91
66337;SHT30;53139;45.576;5.304;2023-05-20T19:22:01;16.50;85.48
66337;SHT30;53139;45.576;5.304;2023-05-20T19:25:05;16.47;85.21
66337;SHT30;53139;45.576;5.304;2023-05-20T19:28:05;16.47;84.83
66337;SHT30;53139;45.576;5.304;2023-05-20T19:31:06;16.43;84.51
66337;SHT30;53139;45.576;5.304;2023-05-20T19:34:06;16.59;84.51
66337;SHT30;53139;45.576;5.304;2023-05-20T19:37:22;16.53;85.00
66337;SHT30;53139;45.576;5.304;2023-05-20T19:40:27;16.42;85.55
66337;SHT30;53139;45.576;5.304;2023-05-20T19:43:27;16.45;84.93
66337;SHT30;53139;45.576;5.304;2023-05-20T19:46:29;16.52;84.80
66337;SHT30;53139;45.576;5.304;2023-05-20T19:49:30;16.52;85.23
66337;SHT30;53139;45.576;5.304;2023-05-20T19:52:32;16.29;87.41
66337;SHT30;53139;45.576;5.304;2023-05-20T19:55:33;16.20;88.38
66337;SHT30;53139;45.576;5.304;2023-05-20T19:58:34;16.04;87.92
66337;SHT30;53139;45.576;5.304;2023-05-20T20:01:35;16.29;86.61
66337;SHT30;53139;45.576;5.304;2023-05-20T20:04:38;16.27;86.42
66337;SHT30;53139;45.576;5.304;2023-05-20T20:07:42;16.32;85.84
66337;SHT30;53139;45.576;5.304;2023-05-20T20:10:45;16.30;86.03
66337;SHT30;53139;45.576;5.304;2023-05-20T20:13:45;16.32;85.98
66337;SHT30;53139;45.576;5.304;2023-05-20T20:16:52;16.18;87.20
66337;SHT30;53139;45.576;5.304;2023-05-20T20:19:53;16.06;88.03
66337;SHT30;53139;45.576;5.304;2023-05-20T20:22:57;15.99;88.01
66337;SHT30;53139;45.576;5.304;2023-05-20T20:26:08;16.05;87.97
66337;SHT30;53139;45.576;5.304;2023-05-20T20:29:08;16.06;87.66
66337;SHT30;53139;45.576;5.304;2023-05-20T20:32:11;15.94;88.51
66337;SHT30;53139;45.576;5.304;2023-05-20T20:35:14;15.94;88.29
66337;SHT30;53139;45.576;5.304;2023-05-20T20:38:17;15.99;87.82
66337;SHT30;53139;45.576;5.304;2023-05-20T20:41:18;15.80;88.75
66337;SHT30;53139;45.576;5.304;2023-05-20T20:44:20;15.94;87.92
66337;SHT30;53139;45.576;5.304;2023-05-20T20:47:21;15.80;89.17
66337;SHT30;53139;45.576;5.304;2023-05-20T20:50:22;15.87;88.67
66337;SHT30;53139;45.576;5.304;2023-05-20T20:53:23;15.87;88.18
66337;SHT30;53139;45.576;5.304;2023-05-20T20:56:23;15.85;88.13
66337;SHT30;53139;45.576;5.304;2023-05-20T20:59:24;15.82;88.15
66337;SHT30;53139;45.576;5.304;2023-05-20T21:02:25;15.81;87.95
66337;SHT30;53139;45.576;5.304;2023-05-20T21:05:26;15.82;87.68
66337;SHT30;53139;45.576;5.304;2023-05-20T21:08:31;15.70;88.50
66337;SHT30;53139;45.576;5.304;2023-05-20T21:11:34;15.61;89.03
66337;SHT30;53139;45.576;5.304;2023-05-20T21:14:35;15.60;88.87
66337;SHT30;53139;45.576;5.304;2023-05-20T21:17:35;15.68;88.26
66337;SHT30;53139;45.576;5.304;2023-05-20T21:20:38;15.55;89.03
66337;SHT30;53139;45.576;5.304;2023-05-20T21:23:39;15.49;89.65
